FACTSBGO

Guest
Details From FACT - Cape Town International
To SBGO - Santo Genoveva
Flight Number -
Tags Generated
Created
Modified
Stats Distance 3,761 nm / 6,966 km
Max Altitude 0 ft / 0 m
Waypoints 4
Social Downloads 0
Likes 0
Share VATSIM

Download

Looking for another format? Having issues loading an existing format? Contact us
Advertisement - Login to hide

Notes

Generated

Route

FACT REINA GOI SBGO

ID Type Via Altitude Latitude Longitude Leg Dist Tot Dist Heading (true) Name
O FACT APT - 0 ft / 0 m -33.96149˚ 18.59772˚ - 0 nm - -
REINA FIX - 0 ft / 0 m -18.43800˚ -45.57133˚ 3525 nm 3525 nm 268° / 299° -
GOI VOR - 0 ft / 0 m -16.63243˚ -49.21536˚ 235 nm 3760 nm 297° / 298° GOIANIA VOR-DME
O SBGO APT - 0 ft / 0 m -16.62634˚ -49.23081˚ 0 nm 3761 nm 292° / 292° -

Altitude Profile

Advertisement - Login to hide

Weather


0- 5 10 15 20 25 30 35+ Temperature / ° C

Clouds and Precipitation
Forecast for 2017-12-11 18:00 UTC. Updated 2 hours ago

Ground ~20,000 ft ~40,000 ft Winds

FACT

Details ICAO FACT (CPT)
Name Cape Town International
Region South Africa
Timezone Africa/Johannesburg (UTC+2.0)
Stats Elevation 151 ft / 46 m (AMSL)
Location -33.970501° 18.604405°
Runways 2
Magnetic Variation 25.342° W

METAR

FACT 111700Z 17023KT 9999 FEW035 19/12 Q1013 NOSIG

Decode

TAF

Not found

Departure Runways

ID Width Length Bearing (true) Bearing (mag) Surface Threshold Offset Overrun Length
01 200 ft / 61 m 10,527 ft / 3,209 m 345.27° 10.61° Asphalt 0 ft / 0 m 195 ft / 59 m
16 151 ft / 46 m 5,586 ft / 1,703 m 135.35° 160.69° Asphalt 300 ft / 91 m 0 ft / 0 m
19 200 ft / 61 m 10,527 ft / 3,209 m 165.27° 190.61° Asphalt 0 ft / 0 m 195 ft / 59 m
34 151 ft / 46 m 5,586 ft / 1,703 m 315.35° 340.69° Asphalt 300 ft / 91 m 0 ft / 0 m

SBGO

Details ICAO SBGO (GYN)
Name Santo Genoveva
Region Brazil
Timezone America/Sao_Paulo (UTC-2.0)
Stats Elevation 2,450 ft / 747 m (AMSL)
Location -16.632032° -49.220686°
Runways 1
Magnetic Variation 20.988° W

METAR

SBGO 111700Z 28006KT 9999 SCT030 FEW035TCU BKN090 27/18 Q1010

Decode

TAF

TAF TAF SBGO 110800Z 1112/1212 31006KT 9999 SCT025 TX27/1118Z TN20/1109Z BECMG 1113/1115 33005KT BKN030 PROB40 1118/1122 01005KT TS VCSH SCT020 FEW027CB BECMG 1122/1123 29005KT SCT030BE BECMG 1202/1204 34005KT SCT020 BECMG 1210/1212 28007KT BKN015 RMK PEW

Decode

Destination Runways

ID Width Length Bearing (true) Bearing (mag) Surface Threshold Offset Overrun Length
14 148 ft / 45 m 8,208 ft / 2,502 m 120.42° 141.41° Asphalt 0 ft / 0 m 0 ft / 0 m
32 148 ft / 45 m 8,208 ft / 2,502 m 300.41° 321.40° Asphalt 980 ft / 299 m 0 ft / 0 m